createdAt,value
2023-02-16T00:00:41.528Z,3.90
2023-02-16T00:05:44.866Z,3.90
2023-02-16T00:11:08.797Z,3.80
2023-02-16T00:16:16.754Z,3.80
2023-02-16T00:21:20.483Z,3.70
2023-02-16T00:26:25.784Z,3.60
2023-02-16T00:31:33.008Z,3.60
2023-02-16T00:36:36.599Z,3.50
2023-02-16T00:41:51.944Z,3.50
2023-02-16T00:46:57.035Z,3.50
2023-02-16T00:52:00.369Z,3.50
2023-02-16T00:57:03.941Z,3.50
2023-02-16T01:02:08.661Z,3.50
2023-02-16T01:07:31.072Z,3.50
2023-02-16T01:12:34.635Z,3.40
2023-02-16T01:17:39.384Z,3.40
2023-02-16T01:22:43.247Z,3.40
2023-02-16T01:27:47.152Z,3.30
2023-02-16T01:32:52.905Z,3.30
2023-02-16T01:37:56.223Z,3.20
2023-02-16T01:43:05.214Z,3.20
2023-02-16T01:48:20.561Z,3.20
2023-02-16T01:53:30.919Z,3.10
2023-02-16T01:58:41.019Z,3.10
2023-02-16T02:04:04.454Z,3.00
2023-02-16T02:09:11.951Z,3.00
2023-02-16T02:14:20.126Z,2.90
2023-02-16T02:19:46.525Z,2.80
2023-02-16T02:25:24.473Z,2.70
2023-02-16T02:30:43.245Z,2.80
2023-02-16T02:35:52.378Z,2.80
2023-02-16T02:41:05.685Z,2.90
2023-02-16T02:46:17.982Z,2.90
2023-02-16T02:51:33.857Z,2.80
2023-02-16T02:57:06.449Z,2.70
2023-02-16T03:02:12.135Z,2.70
2023-02-16T03:07:17.547Z,2.60
2023-02-16T03:12:39.159Z,2.70
2023-02-16T03:18:02.459Z,2.60
2023-02-16T03:23:25.408Z,2.50
2023-02-16T03:28:50.782Z,2.60
2023-02-16T03:33:55.609Z,2.60
2023-02-16T03:38:59.722Z,2.60
2023-02-16T03:44:03.052Z,2.50
2023-02-16T03:49:07.768Z,2.50
2023-02-16T03:54:11.096Z,2.50
2023-02-16T03:59:14.319Z,2.50
2023-02-16T04:04:19.301Z,2.40
2023-02-16T04:09:22.577Z,2.40
2023-02-16T04:14:25.850Z,2.40
2023-02-16T04:19:30.723Z,2.40
2023-02-16T04:24:33.995Z,2.40
2023-02-16T04:29:37.384Z,2.40
2023-02-16T04:34:42.132Z,2.50
2023-02-16T04:39:45.424Z,2.50
2023-02-16T04:44:49.063Z,2.40
2023-02-16T04:49:53.831Z,2.40
2023-02-16T04:54:57.031Z,2.40
2023-02-16T05:00:00.302Z,2.40
2023-02-16T05:05:05.090Z,2.40
2023-02-16T05:10:08.973Z,2.40
2023-02-16T05:15:12.332Z,2.40
2023-02-16T05:20:17.021Z,2.40
2023-02-16T05:25:20.539Z,2.40
2023-02-16T05:30:23.865Z,2.40
2023-02-16T05:35:28.698Z,2.40
2023-02-16T05:40:31.934Z,2.30
2023-02-16T05:45:35.387Z,2.30
2023-02-16T05:50:40.194Z,2.40
2023-02-16T05:55:45.289Z,2.30
2023-02-16T06:00:48.562Z,2.40
2023-02-16T06:05:56.176Z,2.40
2023-02-16T06:11:00.267Z,2.40
2023-02-16T06:16:04.071Z,2.40
2023-02-16T06:21:09.380Z,2.40
2023-02-16T06:26:12.709Z,2.40
2023-02-16T06:31:16.162Z,2.40
2023-02-16T06:36:21.488Z,2.40
2023-02-16T06:41:35.857Z,2.40
2023-02-16T06:46:39.530Z,2.40
2023-02-16T06:51:44.549Z,2.40
2023-02-16T06:56:47.796Z,2.50
2023-02-16T07:01:51.038Z,2.70
2023-02-16T07:06:55.738Z,2.90
2023-02-16T07:11:59.447Z,3.10
2023-02-16T07:17:04.553Z,3.20
2023-02-16T07:22:09.251Z,3.40
2023-02-16T07:27:12.553Z,3.30
2023-02-16T07:32:15.951Z,3.50
2023-02-16T07:37:20.655Z,3.50
2023-02-16T07:42:24.092Z,3.50
2023-02-16T07:47:28.496Z,3.40
2023-02-16T07:52:33.327Z,3.40
2023-02-16T07:57:36.521Z,3.40
2023-02-16T08:02:41.200Z,3.40
2023-02-16T08:07:46.888Z,3.70
2023-02-16T08:12:50.844Z,3.80
2023-02-16T08:17:54.048Z,4.10
2023-02-16T08:22:59.436Z,4.30
2023-02-16T08:28:02.704Z,4.60
2023-02-16T08:33:05.949Z,5.00
2023-02-16T08:38:10.506Z,5.30
2023-02-16T08:43:13.763Z,5.40
2023-02-16T08:48:17.926Z,5.70
2023-02-16T08:53:23.583Z,5.90
2023-02-16T08:58:26.882Z,6.10
2023-02-16T09:03:32.576Z,6.20
2023-02-16T09:08:38.510Z,6.40
2023-02-16T09:13:42.280Z,6.60
2023-02-16T09:18:46.055Z,6.80
2023-02-16T09:23:52.389Z,7.00
2023-02-16T09:28:56.877Z,7.20
2023-02-16T09:34:02.123Z,7.40
2023-02-16T09:39:08.152Z,7.60
2023-02-16T09:44:22.162Z,7.80
2023-02-16T09:49:30.991Z,8.00
2023-02-16T09:54:43.897Z,8.20
2023-02-16T09:59:56.169Z,8.40
2023-02-16T10:05:23.415Z,8.50
2023-02-16T10:10:35.228Z,8.80
2023-02-16T10:15:42.819Z,9.00
2023-02-16T10:20:52.511Z,9.20
2023-02-16T10:26:02.900Z,9.40
2023-02-16T10:31:15.111Z,9.50
2023-02-16T10:36:27.365Z,9.60
2023-02-16T10:41:37.195Z,9.70
2023-02-16T10:46:44.820Z,9.80
2023-02-16T10:51:51.766Z,10.10
2023-02-16T10:57:01.322Z,10.20
2023-02-16T11:02:18.500Z,10.40
2023-02-16T11:07:23.726Z,10.60
2023-02-16T11:12:34.392Z,10.70
2023-02-16T11:17:50.944Z,10.70
2023-02-16T11:22:54.532Z,10.70
2023-02-16T11:28:02.022Z,10.70
2023-02-16T11:33:07.167Z,10.70
2023-02-16T11:38:27.966Z,10.60
2023-02-16T11:43:37.218Z,10.70
2023-02-16T11:48:40.442Z,10.80
2023-02-16T11:53:45.974Z,10.90
2023-02-16T11:59:05.823Z,10.90
2023-02-16T12:04:23.436Z,10.90
2023-02-16T12:09:35.220Z,11.10
2023-02-16T12:15:02.772Z,11.10
2023-02-16T12:20:19.339Z,11.10
2023-02-16T12:25:28.269Z,11.30
2023-02-16T12:30:46.446Z,11.30
2023-02-16T12:36:04.090Z,11.40
2023-02-16T12:41:22.250Z,11.50
2023-02-16T12:46:32.956Z,11.50
2023-02-16T12:51:40.416Z,11.60
2023-02-16T12:56:46.804Z,11.70
2023-02-16T13:01:53.937Z,11.80
2023-02-16T13:07:03.295Z,11.90
2023-02-16T13:12:17.209Z,12.10
2023-02-16T13:17:35.269Z,12.20
2023-02-16T13:22:55.686Z,12.20
2023-02-16T13:28:09.776Z,12.20
2023-02-16T13:33:38.499Z,12.20
2023-02-16T13:39:34.604Z,12.10
2023-02-16T13:44:44.777Z,12.10
2023-02-16T13:49:50.422Z,12.10
2023-02-16T13:54:53.908Z,12.10
2023-02-16T14:00:04.635Z,12.10
2023-02-16T14:05:26.052Z,12.10
2023-02-16T14:11:02.253Z,11.90
2023-02-16T14:16:11.547Z,11.70
2023-02-16T14:21:28.622Z,11.60
2023-02-16T14:26:33.303Z,11.60
2023-02-16T14:31:45.964Z,11.70
2023-02-16T14:37:28.028Z,11.70
2023-02-16T14:42:35.494Z,11.60
2023-02-16T14:47:48.682Z,11.50
2023-02-16T14:53:34.503Z,11.50
2023-02-16T14:58:48.843Z,11.60
2023-02-16T15:03:54.905Z,11.60
2023-02-16T15:09:01.304Z,11.50
2023-02-16T15:14:11.274Z,11.40
2023-02-16T15:19:23.199Z,11.40
2023-02-16T15:24:26.611Z,11.30
2023-02-16T15:29:31.539Z,11.10
2023-02-16T15:34:37.088Z,11.00
2023-02-16T15:39:49.771Z,11.00
2023-02-16T15:45:00.779Z,11.00
2023-02-16T15:50:15.018Z,10.90
2023-02-16T15:55:19.164Z,10.90
2023-02-16T16:00:25.344Z,10.90
2023-02-16T16:05:33.060Z,10.80
2023-02-16T16:10:40.128Z,10.70
2023-02-16T16:15:49.878Z,10.60
2023-02-16T16:21:01.469Z,10.40
2023-02-16T16:26:18.842Z,10.20
2023-02-16T16:31:37.244Z,10.20
2023-02-16T16:36:47.027Z,10.30
2023-02-16T16:42:11.101Z,10.20
2023-02-16T16:47:25.509Z,10.10
2023-02-16T16:52:41.807Z,10.00
2023-02-16T16:57:45.691Z,10.00
2023-02-16T17:02:51.322Z,9.90
2023-02-16T17:07:54.572Z,9.90
2023-02-16T17:13:00.154Z,10.00
2023-02-16T17:18:05.339Z,9.90
2023-02-16T17:23:08.592Z,9.90
2023-02-16T17:28:12.331Z,9.80
2023-02-16T17:33:16.964Z,9.80
2023-02-16T17:38:22.295Z,9.70
2023-02-16T17:43:26.972Z,9.70
2023-02-16T17:48:31.729Z,9.70
2023-02-16T17:53:35.044Z,9.80
2023-02-16T17:58:38.245Z,9.90
2023-02-16T18:03:43.304Z,10.00
2023-02-16T18:08:46.719Z,9.90
2023-02-16T18:13:50.438Z,9.90
2023-02-16T18:18:57.274Z,9.80
2023-02-16T18:24:00.630Z,9.70
2023-02-16T18:29:05.146Z,9.70
2023-02-16T18:34:10.480Z,9.70
2023-02-16T18:39:13.813Z,9.70
2023-02-16T18:44:17.099Z,9.70
2023-02-16T18:49:21.800Z,9.70
2023-02-16T18:54:25.141Z,9.60
2023-02-16T18:59:29.062Z,9.60
2023-02-16T19:04:34.086Z,9.60
2023-02-16T19:09:37.482Z,9.40
2023-02-16T19:14:41.175Z,9.20
2023-02-16T19:19:45.871Z,9.00
2023-02-16T19:24:50.387Z,8.90
2023-02-16T19:29:53.809Z,8.80
2023-02-16T19:34:58.416Z,8.80
2023-02-16T19:40:01.602Z,8.90
2023-02-16T19:45:05.204Z,8.90
2023-02-16T19:50:11.014Z,8.90
2023-02-16T19:55:14.318Z,8.90
2023-02-16T20:00:17.781Z,8.90
2023-02-16T20:05:22.478Z,8.90
2023-02-16T20:10:25.737Z,8.90
2023-02-16T20:15:29.027Z,8.90
2023-02-16T20:20:33.619Z,8.90
2023-02-16T20:25:39.880Z,8.80
2023-02-16T20:30:43.406Z,8.80
2023-02-16T20:35:48.132Z,8.70
2023-02-16T20:40:51.366Z,8.70
2023-02-16T20:45:54.861Z,8.70
2023-02-16T20:51:02.422Z,8.70
2023-02-16T20:56:08.849Z,8.70
2023-02-16T21:01:14.783Z,8.70
2023-02-16T21:06:19.846Z,8.60
2023-02-16T21:11:23.172Z,8.60
2023-02-16T21:16:26.636Z,8.50
2023-02-16T21:21:31.621Z,8.50
2023-02-16T21:26:34.932Z,8.40
2023-02-16T21:31:38.470Z,8.40
2023-02-16T21:36:43.455Z,8.30
2023-02-16T21:41:46.817Z,8.30
2023-02-16T21:46:50.134Z,8.30
2023-02-16T21:51:56.351Z,8.30
2023-02-16T21:56:59.703Z,8.30
2023-02-16T22:02:03.230Z,8.30
2023-02-16T22:07:08.168Z,8.30
2023-02-16T22:12:11.661Z,8.30
2023-02-16T22:17:15.092Z,8.30
2023-02-16T22:22:20.199Z,8.10
2023-02-16T22:27:23.985Z,8.00
2023-02-16T22:32:27.723Z,7.90
2023-02-16T22:37:33.186Z,7.80
2023-02-16T22:42:37.257Z,7.70
2023-02-16T22:47:40.953Z,7.70
2023-02-16T22:52:45.981Z,7.80
2023-02-16T22:57:49.336Z,7.90
2023-02-16T23:02:52.696Z,8.10
2023-02-16T23:07:57.347Z,8.10
2023-02-16T23:13:00.641Z,8.10
2023-02-16T23:18:03.962Z,8.10
2023-02-16T23:23:08.526Z,8.20
2023-02-16T23:28:12.733Z,8.20
2023-02-16T23:33:16.353Z,8.10
2023-02-16T23:38:21.502Z,8.00
2023-02-16T23:43:24.849Z,8.10
2023-02-16T23:48:28.115Z,8.20
2023-02-16T23:53:32.787Z,8.30
2023-02-16T23:58:38.108Z,8.30
